createdAt,value
2017-10-12T00:01:25.272Z,2.92
2017-10-12T00:03:53.187Z,2.72
2017-10-12T00:06:21.961Z,3.05
2017-10-12T00:08:49.998Z,2.95
2017-10-12T00:11:17.960Z,3.37
2017-10-12T00:13:47.962Z,3.22
2017-10-12T00:16:15.925Z,3.70
2017-10-12T00:18:43.848Z,4.37
2017-10-12T00:21:11.830Z,3.55
2017-10-12T00:23:39.762Z,3.95
2017-10-12T00:26:07.767Z,3.42
2017-10-12T00:28:35.692Z,3.47
2017-10-12T00:31:03.658Z,3.50
2017-10-12T00:33:31.692Z,3.22
2017-10-12T00:35:59.726Z,3.08
2017-10-12T00:38:27.680Z,3.35
2017-10-12T00:40:55.752Z,3.17
2017-10-12T00:43:27.596Z,2.97
2017-10-12T00:45:55.620Z,2.53
2017-10-12T00:48:23.601Z,3.22
2017-10-12T00:50:51.564Z,3.12
2017-10-12T00:53:19.532Z,3.25
2017-10-12T00:55:47.531Z,3.33
2017-10-12T00:58:15.549Z,3.58
2017-10-12T01:00:43.578Z,3.33
2017-10-12T01:03:11.558Z,3.80
2017-10-12T01:05:39.582Z,3.78
2017-10-12T01:08:07.576Z,3.75
2017-10-12T01:10:35.501Z,4.05
2017-10-12T01:13:03.622Z,3.72
2017-10-12T01:15:31.557Z,3.87
2017-10-12T01:17:59.527Z,3.80
2017-10-12T01:20:27.518Z,4.50
2017-10-12T01:22:55.609Z,4.68
2017-10-12T01:25:24.350Z,3.62
2017-10-12T01:27:52.390Z,3.60
2017-10-12T01:30:20.352Z,4.10
2017-10-12T01:32:49.133Z,4.12
2017-10-12T01:35:17.108Z,2.75
2017-10-12T01:37:45.166Z,2.85
2017-10-12T01:40:13.985Z,3.35
2017-10-12T01:42:42.016Z,3.00
2017-10-12T01:45:10.005Z,3.80
2017-10-12T01:47:38.797Z,3.67
2017-10-12T01:50:06.788Z,3.92
2017-10-12T01:52:34.835Z,4.53
2017-10-12T01:55:03.574Z,3.87
2017-10-12T01:57:31.559Z,3.12
2017-10-12T01:59:59.476Z,3.45
2017-10-12T02:02:27.543Z,3.75
2017-10-12T02:04:57.733Z,3.87
2017-10-12T02:07:25.669Z,5.43
2017-10-12T02:09:53.669Z,4.50
2017-10-12T02:12:21.689Z,3.50
2017-10-12T02:14:49.692Z,3.10
2017-10-12T02:17:17.636Z,4.05
2017-10-12T02:19:45.623Z,3.12
2017-10-12T02:22:13.600Z,3.65
2017-10-12T02:24:41.598Z,3.15
2017-10-12T02:27:10.368Z,3.33
2017-10-12T02:29:38.380Z,3.10
2017-10-12T02:32:07.087Z,3.22
2017-10-12T02:34:38.309Z,5.97
2017-10-12T02:37:06.324Z,9.90
2017-10-12T02:39:34.306Z,7.15
2017-10-12T02:42:02.247Z,8.75
2017-10-12T02:44:30.239Z,13.77
2017-10-12T02:46:58.168Z,3.80
2017-10-12T02:49:26.191Z,5.45
2017-10-12T02:51:54.124Z,5.12
2017-10-12T02:54:22.116Z,5.05
2017-10-12T02:56:50.056Z,3.08
2017-10-12T02:59:18.061Z,4.12
2017-10-12T03:01:46.027Z,3.50
2017-10-12T03:04:21.543Z,3.45
2017-10-12T03:06:49.480Z,3.67
2017-10-12T03:09:17.477Z,3.55
2017-10-12T03:11:45.474Z,3.50
2017-10-12T03:14:13.441Z,3.72
2017-10-12T03:16:41.566Z,3.87
2017-10-12T03:19:09.518Z,3.25
2017-10-12T03:21:37.530Z,3.90
2017-10-12T03:24:05.465Z,3.83
2017-10-12T03:26:33.461Z,3.55
2017-10-12T03:29:01.383Z,3.35
2017-10-12T03:31:29.374Z,3.25
2017-10-12T03:33:57.530Z,3.40
2017-10-12T03:36:25.525Z,3.87
2017-10-12T03:38:53.502Z,3.75
2017-10-12T03:41:21.502Z,2.80
2017-10-12T03:43:49.488Z,12.98
2017-10-12T03:46:17.558Z,3.95
2017-10-12T03:48:45.574Z,2.62
2017-10-12T03:51:13.614Z,3.53
2017-10-12T03:53:41.577Z,3.95
2017-10-12T03:56:09.524Z,3.90
2017-10-12T03:58:38.200Z,3.60
2017-10-12T04:01:06.958Z,3.55
2017-10-12T04:03:34.967Z,3.80
2017-10-12T04:06:03.717Z,3.33
2017-10-12T04:08:31.637Z,3.50
2017-10-12T04:10:59.561Z,3.62
2017-10-12T04:13:27.542Z,3.78
2017-10-12T04:16:00.704Z,3.60
2017-10-12T04:18:34.900Z,3.42
2017-10-12T04:21:11.262Z,4.62
2017-10-12T04:23:44.862Z,3.65
2017-10-12T04:26:16.885Z,4.80
2017-10-12T04:28:50.146Z,3.58
2017-10-12T04:31:22.306Z,3.22
2017-10-12T04:33:54.730Z,3.35
2017-10-12T04:36:24.412Z,3.92
2017-10-12T04:38:53.846Z,3.08
2017-10-12T04:41:23.877Z,4.22
2017-10-12T04:43:53.203Z,4.18
2017-10-12T04:46:22.409Z,4.43
2017-10-12T04:48:51.745Z,4.20
2017-10-12T04:51:19.824Z,3.97
2017-10-12T04:53:47.843Z,4.40
2017-10-12T04:56:15.794Z,4.15
2017-10-12T04:58:43.805Z,3.45
2017-10-12T05:01:11.727Z,4.45
2017-10-12T05:03:44.073Z,4.37
2017-10-12T05:06:12.011Z,4.25
2017-10-12T05:08:39.984Z,4.03
2017-10-12T05:11:07.929Z,4.18
2017-10-12T05:13:35.964Z,4.33
2017-10-12T05:16:04.672Z,3.70
2017-10-12T05:18:33.472Z,3.70
2017-10-12T05:21:01.401Z,3.78
2017-10-12T05:23:29.340Z,3.53
2017-10-12T05:25:57.340Z,4.20
2017-10-12T05:28:25.270Z,3.45
2017-10-12T05:30:53.358Z,4.10
2017-10-12T05:33:21.534Z,3.78
2017-10-12T05:35:49.526Z,3.08
2017-10-12T05:38:17.465Z,3.40
2017-10-12T05:40:45.500Z,2.97
2017-10-12T05:43:13.454Z,3.40
2017-10-12T05:45:41.446Z,3.05
2017-10-12T05:48:09.394Z,3.08
2017-10-12T05:50:37.413Z,3.78
2017-10-12T05:53:05.349Z,2.80
2017-10-12T05:55:33.321Z,2.85
2017-10-12T05:58:01.298Z,2.95
2017-10-12T06:00:30.042Z,3.12
2017-10-12T06:02:58.117Z,2.80
2017-10-12T06:05:26.152Z,2.75
2017-10-12T06:07:54.075Z,2.72
2017-10-12T06:10:22.088Z,2.70
2017-10-12T06:12:50.048Z,3.30
2017-10-12T06:15:18.840Z,3.58
2017-10-12T06:17:46.767Z,2.67
2017-10-12T06:20:14.792Z,2.80
2017-10-12T06:22:42.694Z,3.10
2017-10-12T06:25:10.690Z,2.45
2017-10-12T06:27:38.602Z,2.80
2017-10-12T06:30:06.532Z,2.40
2017-10-12T06:32:34.459Z,2.20
2017-10-12T06:35:02.415Z,2.78
2017-10-12T06:37:30.383Z,2.35
2017-10-12T06:39:58.263Z,2.03
2017-10-12T06:42:26.244Z,2.30
2017-10-12T06:44:54.175Z,1.90
2017-10-12T06:47:22.147Z,2.05
2017-10-12T06:49:50.055Z,2.28
2017-10-12T06:52:18.052Z,2.08
2017-10-12T06:54:46.098Z,1.70
2017-10-12T06:57:14.031Z,1.67
2017-10-12T06:59:41.934Z,1.87
2017-10-12T07:02:09.873Z,1.60
2017-10-12T07:04:37.757Z,1.80
2017-10-12T07:07:05.702Z,2.00
2017-10-12T07:09:33.604Z,1.80
2017-10-12T07:12:01.538Z,1.33
2017-10-12T07:14:29.450Z,1.53
2017-10-12T07:16:57.446Z,1.53
2017-10-12T07:19:25.331Z,1.70
2017-10-12T07:21:53.324Z,1.37
2017-10-12T07:24:21.340Z,1.47
2017-10-12T07:26:49.310Z,2.43
2017-10-12T07:29:17.212Z,1.90
2017-10-12T07:31:45.097Z,2.37
2017-10-12T07:34:13.032Z,1.80
2017-10-12T07:36:40.931Z,1.80
2017-10-12T07:39:08.860Z,1.90
2017-10-12T07:41:36.743Z,2.30
2017-10-12T07:44:04.674Z,2.23
2017-10-12T07:46:32.578Z,3.03
2017-10-12T07:49:00.503Z,2.27
2017-10-12T07:51:28.418Z,2.07
2017-10-12T07:53:56.447Z,2.50
2017-10-12T07:56:24.389Z,2.53
2017-10-12T07:58:52.321Z,2.40
2017-10-12T08:01:20.240Z,1.80
2017-10-12T08:03:48.187Z,2.30
2017-10-12T08:06:16.078Z,2.27
2017-10-12T08:08:44.058Z,2.80
2017-10-12T08:11:12.005Z,2.40
2017-10-12T08:13:39.929Z,2.07
2017-10-12T08:16:07.831Z,2.33
2017-10-12T08:18:35.799Z,2.20
2017-10-12T08:21:03.698Z,2.67
2017-10-12T08:23:31.766Z,2.43
2017-10-12T08:25:59.709Z,1.97
2017-10-12T08:28:27.640Z,2.37
2017-10-12T08:30:55.509Z,2.70
2017-10-12T08:33:23.452Z,2.17
2017-10-12T08:35:51.343Z,2.57
2017-10-12T08:38:19.265Z,1.77
2017-10-12T08:40:47.979Z,2.00
2017-10-12T08:43:15.857Z,2.57
2017-10-12T08:45:43.788Z,2.30
2017-10-12T08:48:11.646Z,2.10
2017-10-12T08:50:39.583Z,2.60
2017-10-12T08:53:07.676Z,2.80
2017-10-12T08:55:35.604Z,2.87
2017-10-12T08:58:03.481Z,2.30
2017-10-12T09:00:31.410Z,2.37
2017-10-12T09:02:59.275Z,1.50
2017-10-12T09:05:27.182Z,1.80
2017-10-12T09:07:55.109Z,1.90
2017-10-12T09:10:23.089Z,2.17
2017-10-12T09:12:51.417Z,2.00
2017-10-12T09:15:19.359Z,2.40
2017-10-12T09:17:47.366Z,2.27
2017-10-12T09:20:15.437Z,2.53
2017-10-12T09:22:43.318Z,2.47
2017-10-12T09:25:11.691Z,2.50
2017-10-12T09:27:41.636Z,2.10
2017-10-12T09:30:09.568Z,2.83
2017-10-12T09:32:38.033Z,2.87
2017-10-12T09:35:06.060Z,1.87
2017-10-12T09:37:34.800Z,2.20
2017-10-12T09:40:04.408Z,2.60
2017-10-12T09:42:32.485Z,2.23
2017-10-12T09:45:00.389Z,2.50
2017-10-12T09:47:28.400Z,2.30
2017-10-12T09:49:56.349Z,2.27
2017-10-12T09:52:24.383Z,2.20
2017-10-12T09:54:52.339Z,2.40
2017-10-12T09:57:20.356Z,2.20
2017-10-12T09:59:49.040Z,2.57
2017-10-12T10:02:17.806Z,1.50
2017-10-12T10:04:46.752Z,1.73
2017-10-12T10:07:14.807Z,2.00
2017-10-12T10:09:42.761Z,2.13
2017-10-12T10:12:10.741Z,2.10
2017-10-12T10:14:39.415Z,1.73
2017-10-12T10:17:07.410Z,1.50
2017-10-12T10:19:35.307Z,1.43
2017-10-12T10:22:10.173Z,1.50
2017-10-12T10:24:38.061Z,2.17
2017-10-12T10:27:06.798Z,1.63
2017-10-12T10:29:34.770Z,2.10
2017-10-12T10:32:02.712Z,1.43
2017-10-12T10:34:30.625Z,2.30
2017-10-12T10:36:58.625Z,1.80
2017-10-12T10:39:26.544Z,1.77
2017-10-12T10:41:54.796Z,1.77
2017-10-12T10:44:24.203Z,1.70
2017-10-12T10:46:52.279Z,1.60
2017-10-12T10:49:20.171Z,1.80
2017-10-12T10:51:49.258Z,1.70
2017-10-12T10:54:22.020Z,1.30
2017-10-12T10:56:50.035Z,1.50
2017-10-12T10:59:17.993Z,1.70
2017-10-12T11:01:47.208Z,1.40
2017-10-12T11:04:16.082Z,1.87
2017-10-12T11:06:45.268Z,1.80
2017-10-12T11:09:13.815Z,1.80
2017-10-12T11:11:43.794Z,1.57
2017-10-12T11:14:11.898Z,2.07
2017-10-12T11:16:41.102Z,1.83
2017-10-12T11:19:09.169Z,1.70
2017-10-12T11:21:37.106Z,1.70
2017-10-12T11:24:05.087Z,1.30
2017-10-12T11:26:33.042Z,1.70
2017-10-12T11:29:01.006Z,2.00
2017-10-12T11:31:28.919Z,2.30
2017-10-12T11:33:57.698Z,1.57
2017-10-12T11:36:25.641Z,1.60
2017-10-12T11:38:53.605Z,1.37
2017-10-12T11:41:21.496Z,2.50
2017-10-12T11:43:49.632Z,1.93
2017-10-12T11:46:17.543Z,1.93
2017-10-12T11:48:45.557Z,2.30
2017-10-12T11:51:13.503Z,1.50
2017-10-12T11:53:42.240Z,1.73
2017-10-12T11:56:10.153Z,2.00
2017-10-12T11:58:38.197Z,1.80
2017-10-12T12:01:06.153Z,2.00
2017-10-12T12:03:34.080Z,1.80
2017-10-12T12:06:02.071Z,2.80
2017-10-12T12:08:30.002Z,1.90
2017-10-12T12:10:58.005Z,1.77
2017-10-12T12:13:26.153Z,2.00
2017-10-12T12:15:54.957Z,2.33
2017-10-12T12:18:22.863Z,1.60
2017-10-12T12:20:50.806Z,2.47
2017-10-12T12:23:18.756Z,1.80
2017-10-12T12:25:47.456Z,1.47
2017-10-12T12:28:15.384Z,1.60
2017-10-12T12:30:43.378Z,1.70
2017-10-12T12:33:11.295Z,2.00
2017-10-12T12:35:39.393Z,2.30
2017-10-12T12:38:07.306Z,2.53
2017-10-12T12:40:35.316Z,1.40
2017-10-12T12:43:05.747Z,2.37
2017-10-12T12:45:33.714Z,2.10
2017-10-12T12:48:01.671Z,2.67
2017-10-12T12:50:30.593Z,1.70
2017-10-12T12:52:59.445Z,1.93
2017-10-12T12:55:27.416Z,2.00
2017-10-12T12:57:55.347Z,2.10
2017-10-12T13:00:23.453Z,2.40
2017-10-12T13:02:51.440Z,1.80
2017-10-12T13:05:19.509Z,2.27
2017-10-12T13:07:47.499Z,1.50
2017-10-12T13:10:15.436Z,2.23
2017-10-12T13:12:43.437Z,2.70
2017-10-12T13:15:11.409Z,2.10
2017-10-12T13:17:39.410Z,1.83
2017-10-12T13:20:07.373Z,1.87
2017-10-12T13:22:35.490Z,1.50
2017-10-12T13:25:03.489Z,1.20
2017-10-12T13:27:31.522Z,1.57
2017-10-12T13:29:59.463Z,1.80
2017-10-12T13:32:28.211Z,1.73
2017-10-12T13:34:56.259Z,1.20
2017-10-12T13:37:24.238Z,1.90
2017-10-12T13:39:52.162Z,2.00
2017-10-12T13:42:20.166Z,1.90
2017-10-12T13:44:48.098Z,1.80
2017-10-12T13:47:16.098Z,2.07
2017-10-12T13:49:44.066Z,2.00
2017-10-12T13:52:12.837Z,1.40
2017-10-12T13:54:40.807Z,1.87
2017-10-12T13:57:09.561Z,2.30
2017-10-12T13:59:37.526Z,2.30
2017-10-12T14:02:07.410Z,1.97
2017-10-12T14:04:36.574Z,1.77
2017-10-12T14:07:04.601Z,1.67
2017-10-12T14:09:32.595Z,2.07
2017-10-12T14:12:00.641Z,1.87
2017-10-12T14:14:28.683Z,1.30
2017-10-12T14:16:56.662Z,1.93
2017-10-12T14:19:24.651Z,1.77
2017-10-12T14:21:52.629Z,1.80
2017-10-12T14:24:20.630Z,2.40
2017-10-12T14:26:48.586Z,1.70
2017-10-12T14:29:16.622Z,2.67
2017-10-12T14:31:44.527Z,1.93
2017-10-12T14:34:19.876Z,2.67
2017-10-12T14:36:47.927Z,1.83
2017-10-12T14:39:15.917Z,2.20
2017-10-12T14:41:43.863Z,1.90
2017-10-12T14:44:11.957Z,2.00
2017-10-12T14:46:39.851Z,1.93
2017-10-12T14:49:07.796Z,2.40
2017-10-12T14:51:35.718Z,1.77
2017-10-12T14:54:03.664Z,2.00
2017-10-12T14:56:31.650Z,2.40
2017-10-12T14:58:59.617Z,2.50
2017-10-12T15:01:28.276Z,2.17
2017-10-12T15:03:56.461Z,2.07
2017-10-12T15:06:24.359Z,2.40
2017-10-12T15:08:52.356Z,2.00
2017-10-12T15:11:20.295Z,1.53
2017-10-12T15:13:48.986Z,1.90
2017-10-12T15:16:17.629Z,1.90
2017-10-12T15:18:45.566Z,1.97
2017-10-12T15:21:13.504Z,1.60
2017-10-12T15:23:41.453Z,3.00
2017-10-12T15:26:09.326Z,1.97
2017-10-12T15:28:37.220Z,2.00
2017-10-12T15:31:05.161Z,1.97
2017-10-12T15:33:33.230Z,2.00
2017-10-12T15:36:01.166Z,1.93
2017-10-12T15:38:29.049Z,1.83
2017-10-12T15:40:56.977Z,1.80
2017-10-12T15:43:24.908Z,1.50
2017-10-12T15:45:52.910Z,2.10
2017-10-12T15:48:20.850Z,2.10
2017-10-12T15:50:48.793Z,2.00
2017-10-12T15:53:16.688Z,1.97
2017-10-12T15:55:44.615Z,1.37
2017-10-12T15:58:12.522Z,2.10
2017-10-12T16:00:40.496Z,1.97
2017-10-12T16:03:08.565Z,1.60
2017-10-12T16:05:36.516Z,2.00
2017-10-12T16:08:04.421Z,2.13
2017-10-12T16:10:33.126Z,1.70
2017-10-12T16:13:01.767Z,2.87
2017-10-12T16:15:29.741Z,1.40
2017-10-12T16:17:57.635Z,1.67
2017-10-12T16:20:26.346Z,1.63
2017-10-12T16:25:22.259Z,1.73
2017-10-12T16:27:53.333Z,2.00
2017-10-12T16:30:21.262Z,2.53
2017-10-12T16:33:07.775Z,2.20
2017-10-12T16:35:21.153Z,2.00
2017-10-12T16:37:49.064Z,2.80
2017-10-12T16:40:17.014Z,2.57
2017-10-12T16:42:44.985Z,3.07
2017-10-12T16:45:12.895Z,3.03
2017-10-12T16:47:40.869Z,4.17
2017-10-12T16:50:09.018Z,3.10
2017-10-12T16:52:36.966Z,3.57
2017-10-12T16:55:06.088Z,3.47
2017-10-12T16:57:34.869Z,2.67
2017-10-12T17:00:02.773Z,2.67
2017-10-12T17:02:31.023Z,2.35
2017-10-12T17:04:59.683Z,3.53
2017-10-12T17:07:27.629Z,2.97
2017-10-12T17:09:55.530Z,2.87
2017-10-12T17:12:23.528Z,2.58
2017-10-12T17:14:52.210Z,2.35
2017-10-12T17:17:20.971Z,2.80
2017-10-12T17:19:48.931Z,2.95
2017-10-12T17:22:16.877Z,3.37
2017-10-12T17:24:45.763Z,3.37
2017-10-12T17:27:13.730Z,2.50
2017-10-12T17:29:48.691Z,2.65
2017-10-12T17:32:16.642Z,2.90
2017-10-12T17:34:44.534Z,3.12
2017-10-12T17:37:12.490Z,3.15
2017-10-12T17:39:40.389Z,2.53
2017-10-12T17:42:08.325Z,2.35
2017-10-12T17:44:38.281Z,2.95
2017-10-12T17:47:06.249Z,2.70
2017-10-12T17:49:34.238Z,1.75
2017-10-12T17:52:02.660Z,2.50
2017-10-12T17:56:59.307Z,2.67
2017-10-12T17:59:27.310Z,2.15
2017-10-12T18:01:55.241Z,2.95
2017-10-12T18:06:51.220Z,3.17
2017-10-12T18:09:19.249Z,3.60
2017-10-12T18:14:14.981Z,2.70
2017-10-12T18:16:43.675Z,3.30
2017-10-12T18:19:11.621Z,2.80
2017-10-12T18:21:40.307Z,3.40
2017-10-12T18:24:10.366Z,2.30
2017-10-12T18:26:38.268Z,2.40
2017-10-12T18:29:06.244Z,2.67
2017-10-12T18:31:34.130Z,2.50
2017-10-12T18:34:02.330Z,2.87
2017-10-12T18:36:30.261Z,2.75
2017-10-12T18:38:58.225Z,3.05
2017-10-12T18:41:26.100Z,3.20
2017-10-12T18:43:54.018Z,2.22
2017-10-12T18:46:21.908Z,2.25
2017-10-12T18:48:49.860Z,4.70
2017-10-12T18:51:17.886Z,3.30
2017-10-12T18:53:45.852Z,2.60
2017-10-12T18:56:13.746Z,2.80
2017-10-12T18:58:41.639Z,2.70
2017-10-12T19:01:09.582Z,2.60
2017-10-12T19:03:39.417Z,2.70
2017-10-12T19:06:07.308Z,2.85
2017-10-12T19:08:35.240Z,2.40
2017-10-12T19:11:03.938Z,2.30
2017-10-12T19:13:31.826Z,1.87
2017-10-12T19:15:59.746Z,2.28
2017-10-12T19:18:27.613Z,2.40
2017-10-12T19:20:55.590Z,2.53
2017-10-12T19:23:24.439Z,2.60
2017-10-12T19:25:52.385Z,3.35
2017-10-12T19:30:48.345Z,3.97
2017-10-12T19:33:17.545Z,2.85
2017-10-12T19:35:45.482Z,3.45
2017-10-12T19:38:13.408Z,2.30
2017-10-12T19:40:41.337Z,2.78
2017-10-12T19:43:09.295Z,2.95
2017-10-12T19:45:37.310Z,2.95
2017-10-12T19:48:05.213Z,3.55
2017-10-12T19:50:33.180Z,3.35
2017-10-12T19:53:01.055Z,3.10
2017-10-12T19:55:28.950Z,2.80
2017-10-12T19:58:02.535Z,2.75
2017-10-12T20:00:30.794Z,2.35
2017-10-12T20:02:58.707Z,3.78
2017-10-12T20:05:26.574Z,2.45
2017-10-12T20:07:54.537Z,3.15
2017-10-12T20:10:23.241Z,3.25
2017-10-12T20:12:51.627Z,2.95
2017-10-12T20:15:19.514Z,2.83
2017-10-12T20:17:47.438Z,3.25
2017-10-12T20:20:15.309Z,2.97
2017-10-12T20:22:43.229Z,2.67
2017-10-12T20:25:11.094Z,4.12
2017-10-12T20:27:39.038Z,3.42
2017-10-12T20:30:08.323Z,2.75
2017-10-12T20:32:36.254Z,3.60
2017-10-12T20:35:04.141Z,3.87
2017-10-12T20:37:32.057Z,2.83
2017-10-12T20:39:59.917Z,3.80
2017-10-12T20:42:27.854Z,3.30
2017-10-12T20:44:55.871Z,4.15
2017-10-12T20:47:23.809Z,3.58
2017-10-12T20:49:51.680Z,3.30
2017-10-12T20:52:19.614Z,3.28
2017-10-12T20:55:17.762Z,4.50
2017-10-12T20:57:16.281Z,4.55
2017-10-12T20:59:44.394Z,2.75
2017-10-12T21:02:12.336Z,3.70
2017-10-12T21:04:40.215Z,3.80
2017-10-12T21:07:08.136Z,5.25
2017-10-12T21:09:36.027Z,4.47
2017-10-12T21:12:03.966Z,5.32
2017-10-12T21:14:32.749Z,6.93
2017-10-12T21:17:00.614Z,4.80
2017-10-12T21:19:28.547Z,5.12
2017-10-12T21:21:56.422Z,5.05
2017-10-12T21:24:24.349Z,5.00
2017-10-12T21:26:52.232Z,5.68
2017-10-12T21:29:20.163Z,3.87
2017-10-12T21:31:48.045Z,5.10
2017-10-12T21:34:16.745Z,5.22
2017-10-12T21:36:44.784Z,4.45
2017-10-12T21:39:12.700Z,4.50
2017-10-12T21:41:40.630Z,4.80
2017-10-12T21:44:08.733Z,4.75
2017-10-12T21:46:36.666Z,5.40
2017-10-12T21:49:04.584Z,6.10
2017-10-12T21:51:32.454Z,7.18
2017-10-12T21:54:05.941Z,6.90
2017-10-12T21:56:33.867Z,5.62
2017-10-12T21:59:01.872Z,5.35
2017-10-12T22:01:29.752Z,4.80
2017-10-12T22:03:59.984Z,5.28
2017-10-12T22:06:27.864Z,4.47
2017-10-12T22:08:55.793Z,4.43
2017-10-12T22:11:23.680Z,4.32
2017-10-12T22:13:51.604Z,4.32
2017-10-12T22:16:19.485Z,4.60
2017-10-12T22:18:47.365Z,3.90
2017-10-12T22:21:15.357Z,4.75
2017-10-12T22:23:43.266Z,4.37
2017-10-12T22:26:11.209Z,4.70
2017-10-12T22:28:39.116Z,4.95
2017-10-12T22:31:07.054Z,5.15
2017-10-12T22:33:36.918Z,4.95
2017-10-12T22:36:06.212Z,5.40
2017-10-12T22:38:34.198Z,3.45
2017-10-12T22:41:03.805Z,3.45
2017-10-12T22:43:31.683Z,3.70
2017-10-12T22:46:00.408Z,4.47
2017-10-12T22:48:29.836Z,4.00
2017-10-12T22:50:59.617Z,3.30
2017-10-12T22:53:27.642Z,4.05
2017-10-12T22:55:55.570Z,3.85
2017-10-12T22:58:23.493Z,3.75
2017-10-12T23:00:52.196Z,3.60
2017-10-12T23:03:20.074Z,3.08
2017-10-12T23:05:48.005Z,4.05
2017-10-12T23:08:15.890Z,3.40
2017-10-12T23:10:43.830Z,4.03
2017-10-12T23:13:11.736Z,3.40
2017-10-12T23:15:39.660Z,3.50
2017-10-12T23:18:07.546Z,4.95
2017-10-12T23:20:35.481Z,4.55
2017-10-12T23:23:04.500Z,3.28
2017-10-12T23:25:32.474Z,3.15
2017-10-12T23:28:00.363Z,3.17
2017-10-12T23:30:28.267Z,3.37
2017-10-12T23:32:56.193Z,3.30
2017-10-12T23:35:24.849Z,3.65
2017-10-12T23:37:52.773Z,3.70
2017-10-12T23:40:20.655Z,3.95
2017-10-12T23:42:48.585Z,2.95
2017-10-12T23:45:17.262Z,3.40
2017-10-12T23:47:45.186Z,4.43
2017-10-12T23:50:13.085Z,3.70
2017-10-12T23:52:41.020Z,3.62
2017-10-12T23:55:09.673Z,4.78
2017-10-12T23:57:37.606Z,5.55
